createdAt,value
2022-09-24T00:00:47.281Z,132.65
2022-09-24T00:01:47.313Z,132.23
2022-09-24T00:02:47.314Z,132.97
2022-09-24T00:03:47.269Z,133.39
2022-09-24T00:04:47.240Z,133.61
2022-09-24T00:05:47.401Z,133.61
2022-09-24T00:06:47.219Z,135.34
2022-09-24T00:07:47.211Z,134.79
2022-09-24T00:08:47.199Z,135.67
2022-09-24T00:09:47.196Z,135.56
2022-09-24T00:10:47.171Z,136.67
2022-09-24T00:11:47.502Z,136.90
2022-09-24T00:12:47.144Z,137.23
2022-09-24T00:13:47.144Z,137.46
2022-09-24T00:14:47.131Z,137.46
2022-09-24T00:15:47.171Z,136.67
2022-09-24T00:16:47.114Z,137.12
2022-09-24T00:17:47.452Z,136.67
2022-09-24T00:18:47.094Z,137.91
2022-09-24T00:19:47.093Z,137.91
2022-09-24T00:20:47.070Z,138.60
2022-09-24T00:21:47.054Z,139.64
2022-09-24T00:22:47.039Z,139.88
2022-09-24T00:23:47.540Z,140.82
2022-09-24T00:24:47.027Z,141.90
2022-09-24T00:25:47.019Z,143.36
2022-09-24T00:26:46.990Z,143.49
2022-09-24T00:27:46.989Z,145.36
2022-09-24T00:28:46.971Z,146.51
2022-09-24T00:29:47.196Z,146.51
2022-09-24T00:30:46.966Z,149.26
2022-09-24T00:31:47.044Z,150.20
2022-09-24T00:32:46.921Z,151.29
2022-09-24T00:33:46.929Z,151.98
2022-09-24T00:34:46.904Z,152.96
2022-09-24T00:35:47.085Z,152.82
2022-09-24T00:36:47.063Z,153.52
2022-09-24T00:37:46.880Z,153.66
2022-09-24T00:38:46.868Z,154.37
2022-09-24T00:39:46.887Z,154.09
2022-09-24T00:40:46.891Z,155.09
2022-09-24T00:41:47.020Z,155.09
2022-09-24T00:42:46.824Z,154.80
2022-09-24T00:43:46.819Z,154.94
2022-09-24T00:44:46.801Z,156.10
2022-09-24T00:45:46.791Z,155.09
2022-09-24T00:46:46.847Z,155.52
2022-09-24T00:47:46.933Z,153.66
2022-09-24T00:48:46.760Z,154.66
2022-09-24T00:49:46.754Z,152.96
2022-09-24T00:50:46.737Z,153.52
2022-09-24T00:51:46.733Z,153.10
2022-09-24T00:52:46.744Z,152.82
2022-09-24T00:53:46.895Z,153.94
2022-09-24T00:54:46.696Z,153.94
2022-09-24T00:55:46.693Z,154.66
2022-09-24T00:56:46.671Z,154.23
2022-09-24T00:57:46.670Z,153.94
2022-09-24T00:58:46.641Z,154.66
2022-09-24T00:59:46.848Z,155.52
2022-09-24T01:00:46.766Z,156.10
2022-09-24T01:01:46.692Z,157.28
2022-09-24T01:02:46.605Z,157.73
2022-09-24T01:03:46.595Z,156.98
2022-09-24T01:04:46.598Z,159.08
2022-09-24T01:05:46.741Z,158.18
2022-09-24T01:06:46.563Z,159.99
2022-09-24T01:07:46.560Z,159.38
2022-09-24T01:08:46.535Z,159.08
2022-09-24T01:09:46.532Z,158.18
2022-09-24T01:10:46.527Z,159.38
2022-09-24T01:11:46.679Z,158.48
2022-09-24T01:12:46.490Z,156.98
2022-09-24T01:13:46.490Z,156.69
2022-09-24T01:14:46.467Z,156.69
2022-09-24T01:15:46.526Z,156.40
2022-09-24T01:16:46.452Z,156.25
2022-09-24T01:17:46.617Z,154.80
2022-09-24T01:18:46.432Z,155.23
2022-09-24T01:19:46.440Z,154.51
2022-09-24T01:20:46.411Z,153.80
2022-09-24T01:21:46.403Z,152.96
2022-09-24T01:22:46.401Z,152.68
2022-09-24T01:23:48.946Z,151.70
2022-09-24T01:24:46.371Z,152.40
2022-09-24T01:25:46.356Z,151.70
2022-09-24T01:26:46.345Z,150.20
2022-09-24T01:27:46.330Z,149.80
2022-09-24T01:28:46.325Z,149.13
2022-09-24T01:29:46.474Z,149.26
2022-09-24T01:30:46.314Z,149.13
2022-09-24T01:31:46.431Z,148.07
2022-09-24T01:32:46.305Z,147.94
2022-09-24T01:33:46.266Z,148.46
2022-09-24T01:34:46.251Z,148.20
2022-09-24T01:35:46.484Z,147.68
2022-09-24T01:36:46.242Z,147.68
2022-09-24T01:37:46.235Z,147.16
2022-09-24T01:38:46.218Z,147.29
2022-09-24T01:39:46.202Z,147.55
2022-09-24T01:40:46.227Z,147.94
2022-09-24T01:41:46.431Z,147.81
2022-09-24T01:42:46.181Z,148.33
2022-09-24T01:43:46.158Z,149.13
2022-09-24T01:44:46.144Z,148.86
2022-09-24T01:45:46.131Z,149.66
2022-09-24T01:46:46.183Z,149.40
2022-09-24T01:47:46.278Z,148.86
2022-09-24T01:48:46.096Z,150.34
2022-09-24T01:49:46.116Z,150.20
2022-09-24T01:50:46.077Z,150.47
2022-09-24T01:51:46.094Z,150.07
2022-09-24T01:52:46.056Z,149.40
2022-09-24T01:53:46.207Z,149.80
2022-09-24T01:54:46.038Z,149.66
2022-09-24T01:55:46.021Z,149.93
2022-09-24T01:56:46.012Z,150.20
2022-09-24T01:57:45.999Z,150.74
2022-09-24T01:58:45.990Z,150.88
2022-09-24T01:59:46.146Z,149.80
2022-09-24T02:00:46.057Z,151.02
2022-09-24T02:01:45.998Z,149.40
2022-09-24T02:02:52.619Z,150.61
2022-09-24T02:03:45.934Z,150.88
2022-09-24T02:04:45.921Z,150.47
2022-09-24T02:05:46.253Z,150.34
2022-09-24T02:06:45.905Z,149.66
2022-09-24T02:07:45.900Z,149.66
2022-09-24T02:08:45.878Z,148.73
2022-09-24T02:09:45.871Z,149.40
2022-09-24T02:10:45.863Z,147.94
2022-09-24T02:11:46.060Z,148.73
2022-09-24T02:12:45.845Z,148.46
2022-09-24T02:13:45.815Z,149.13
2022-09-24T02:14:45.819Z,149.13
2022-09-24T02:15:45.850Z,148.99
2022-09-24T02:16:45.789Z,148.60
2022-09-24T02:17:45.940Z,148.86
2022-09-24T02:18:45.765Z,148.46
2022-09-24T02:19:45.767Z,148.20
2022-09-24T02:20:45.752Z,147.29
2022-09-24T02:21:45.735Z,146.90
2022-09-24T02:22:45.737Z,148.20
2022-09-24T02:23:46.420Z,148.07
2022-09-24T02:24:45.710Z,148.20
2022-09-24T02:25:45.698Z,149.26
2022-09-24T02:26:45.683Z,149.13
2022-09-24T02:27:45.680Z,148.60
2022-09-24T02:28:45.672Z,147.94
2022-09-24T02:29:45.809Z,147.03
2022-09-24T02:30:45.678Z,147.81
2022-09-24T02:31:45.691Z,148.33
2022-09-24T02:32:45.622Z,147.03
2022-09-24T02:33:45.611Z,147.68
2022-09-24T02:34:45.601Z,147.42
2022-09-24T02:35:45.914Z,146.38
2022-09-24T02:36:45.570Z,147.29
2022-09-24T02:37:45.560Z,147.55
2022-09-24T02:38:45.548Z,146.77
2022-09-24T02:39:45.530Z,145.23
2022-09-24T02:40:45.562Z,145.62
2022-09-24T02:41:45.751Z,145.36
2022-09-24T02:42:45.506Z,145.11
2022-09-24T02:43:45.492Z,144.23
2022-09-24T02:44:45.483Z,141.90
2022-09-24T02:45:45.478Z,141.54
2022-09-24T02:46:45.494Z,139.64
2022-09-24T02:47:45.787Z,139.64
2022-09-24T02:48:45.438Z,138.37
2022-09-24T02:49:45.427Z,137.23
2022-09-24T02:50:45.419Z,136.22
2022-09-24T02:51:45.420Z,134.79
2022-09-24T02:52:45.409Z,134.47
2022-09-24T02:53:45.550Z,132.76
2022-09-24T02:54:45.371Z,132.97
2022-09-24T02:55:45.383Z,131.50
2022-09-24T02:56:45.354Z,131.71
2022-09-24T02:57:45.348Z,131.09
2022-09-24T02:58:45.347Z,130.37
2022-09-24T02:59:45.713Z,130.17
2022-09-24T03:00:45.310Z,130.57
2022-09-24T03:01:45.400Z,130.17
2022-09-24T03:02:45.353Z,129.86
2022-09-24T03:03:45.273Z,130.78
2022-09-24T03:04:45.274Z,129.66
2022-09-24T03:05:45.411Z,129.66
2022-09-24T03:06:45.253Z,128.86
2022-09-24T03:07:45.227Z,128.76
2022-09-24T03:08:45.230Z,127.97
2022-09-24T03:09:45.212Z,128.27
2022-09-24T03:10:45.196Z,127.58
2022-09-24T03:11:45.397Z,128.56
2022-09-24T03:12:45.179Z,127.29
2022-09-24T03:13:45.168Z,129.26
2022-09-24T03:14:45.159Z,127.97
2022-09-24T03:15:45.209Z,128.37
2022-09-24T03:16:45.129Z,129.06
2022-09-24T03:17:45.342Z,128.66
2022-09-24T03:18:45.120Z,129.46
2022-09-24T03:19:45.107Z,129.46
2022-09-24T03:20:45.102Z,128.76
2022-09-24T03:21:45.108Z,129.06
2022-09-24T03:22:45.073Z,129.66
2022-09-24T03:23:45.400Z,128.86
2022-09-24T03:24:45.053Z,129.16
2022-09-24T03:25:45.040Z,128.86
2022-09-24T03:26:45.023Z,128.17
2022-09-24T03:27:45.013Z,128.66
2022-09-24T03:28:45.013Z,128.66
2022-09-24T03:29:45.179Z,128.66
2022-09-24T03:30:44.996Z,127.48
2022-09-24T03:31:45.018Z,127.29
2022-09-24T03:32:44.979Z,126.71
2022-09-24T03:33:44.954Z,125.66
2022-09-24T03:34:44.939Z,126.52
2022-09-24T03:35:45.258Z,126.42
2022-09-24T03:36:44.918Z,125.19
2022-09-24T03:37:48.920Z,125.47
2022-09-24T03:38:44.889Z,125.85
2022-09-24T03:39:44.878Z,124.91
2022-09-24T03:40:44.940Z,124.53
2022-09-24T03:41:45.068Z,124.16
2022-09-24T03:42:44.848Z,123.79
2022-09-24T03:43:44.836Z,123.61
2022-09-24T03:44:44.821Z,123.15
2022-09-24T03:45:44.817Z,121.89
2022-09-24T03:46:44.867Z,121.45
2022-09-24T03:47:45.028Z,121.10
2022-09-24T03:48:44.796Z,119.37
2022-09-24T03:49:44.778Z,118.77
2022-09-24T03:50:44.766Z,118.10
2022-09-24T03:51:44.751Z,117.11
2022-09-24T03:52:44.745Z,116.21
2022-09-24T03:54:06.123Z,115.72
2022-09-24T03:54:44.728Z,115.96
2022-09-24T03:55:44.709Z,115.72
2022-09-24T03:56:44.699Z,115.09
2022-09-24T03:57:44.686Z,115.32
2022-09-24T03:58:44.684Z,114.93
2022-09-24T03:59:44.892Z,115.17
2022-09-24T04:00:44.657Z,114.93
2022-09-24T04:01:44.654Z,115.80
2022-09-24T04:02:44.674Z,115.96
2022-09-24T04:03:44.627Z,115.25
2022-09-24T04:04:44.615Z,115.96
2022-09-24T04:05:44.989Z,115.72
2022-09-24T04:06:44.591Z,115.64
2022-09-24T04:07:44.574Z,115.89
2022-09-24T04:08:44.593Z,115.96
2022-09-24T04:09:44.555Z,116.37
2022-09-24T04:10:44.553Z,116.53
2022-09-24T04:11:44.749Z,117.11
2022-09-24T04:12:44.527Z,116.21
2022-09-24T04:13:44.519Z,116.53
2022-09-24T04:14:44.505Z,117.77
2022-09-24T04:15:44.573Z,118.02
2022-09-24T04:16:44.497Z,117.68
2022-09-24T04:17:44.677Z,118.69
2022-09-24T04:18:44.460Z,119.54
2022-09-24T04:19:44.449Z,122.16
2022-09-24T04:20:44.439Z,122.25
2022-09-24T04:21:44.432Z,122.25
2022-09-24T04:22:44.421Z,123.70
2022-09-24T04:23:44.637Z,125.94
2022-09-24T04:24:44.405Z,126.32
2022-09-24T04:25:44.382Z,127.00
2022-09-24T04:26:44.372Z,129.26
2022-09-24T04:27:44.359Z,130.27
2022-09-24T04:28:44.682Z,131.50
2022-09-24T04:29:44.339Z,132.97
2022-09-24T04:30:44.333Z,134.04
2022-09-24T04:31:44.356Z,135.34
2022-09-24T04:32:44.308Z,137.23
2022-09-24T04:33:44.300Z,138.03
2022-09-24T04:34:44.447Z,138.60
2022-09-24T04:35:44.275Z,139.64
2022-09-24T04:36:44.256Z,138.49
2022-09-24T04:37:44.239Z,139.29
2022-09-24T04:38:44.244Z,138.49
2022-09-24T04:39:44.226Z,138.60
2022-09-24T04:40:44.392Z,138.49
2022-09-24T04:41:44.203Z,137.80
2022-09-24T04:42:44.190Z,138.71
2022-09-24T04:43:44.178Z,138.49
2022-09-24T04:44:44.185Z,137.68
2022-09-24T04:45:44.162Z,136.45
2022-09-24T04:46:44.424Z,136.67
2022-09-24T04:47:44.137Z,135.34
2022-09-24T04:48:44.139Z,134.90
2022-09-24T04:49:44.113Z,135.12
2022-09-24T04:50:46.311Z,134.25
2022-09-24T04:51:44.088Z,132.76
2022-09-24T04:52:44.294Z,132.97
2022-09-24T04:53:44.062Z,131.71
2022-09-24T04:54:44.068Z,131.29
2022-09-24T04:55:44.049Z,130.68
2022-09-24T04:56:44.047Z,129.06
2022-09-24T04:57:44.038Z,129.26
2022-09-24T04:58:44.250Z,128.37
2022-09-24T04:59:44.002Z,127.48
2022-09-24T05:00:44.005Z,127.48
2022-09-24T05:01:44.140Z,126.32
2022-09-24T05:02:44.070Z,126.32
2022-09-24T05:03:43.978Z,124.16
2022-09-24T05:04:44.187Z,124.35
2022-09-24T05:05:43.942Z,123.70
2022-09-24T05:06:43.935Z,123.34
2022-09-24T05:07:43.921Z,122.61
2022-09-24T05:08:43.921Z,121.28
2022-09-24T05:09:44.015Z,120.84
2022-09-24T05:10:44.109Z,119.37
2022-09-24T05:11:43.874Z,119.45
2022-09-24T05:12:43.860Z,118.77
2022-09-24T05:13:43.852Z,118.18
2022-09-24T05:14:43.855Z,117.02
2022-09-24T05:15:43.980Z,116.05
2022-09-24T05:16:44.032Z,115.64
2022-09-24T05:17:43.813Z,115.01
2022-09-24T05:18:43.804Z,114.53
2022-09-24T05:19:43.783Z,114.14
2022-09-24T05:20:43.775Z,114.30
2022-09-24T05:21:43.792Z,113.83
2022-09-24T05:22:43.922Z,112.75
2022-09-24T05:23:43.742Z,112.53
2022-09-24T05:24:43.726Z,112.75
2022-09-24T05:25:43.733Z,111.70
2022-09-24T05:26:43.710Z,112.30
2022-09-24T05:27:43.697Z,111.25
2022-09-24T05:28:44.425Z,111.92
2022-09-24T05:29:43.670Z,111.32
2022-09-24T05:30:43.676Z,111.18
2022-09-24T05:31:43.702Z,111.10
2022-09-24T05:32:43.658Z,110.37
2022-09-24T05:33:43.640Z,110.37
2022-09-24T05:34:43.970Z,110.15
2022-09-24T05:35:43.615Z,110.51
2022-09-24T05:36:43.600Z,109.79
2022-09-24T05:37:43.598Z,109.35
2022-09-24T05:38:43.588Z,109.28
2022-09-24T05:39:43.568Z,109.35
2022-09-24T05:40:43.801Z,109.64
2022-09-24T05:41:43.545Z,109.00
2022-09-24T05:42:43.530Z,108.15
2022-09-24T05:43:43.529Z,108.57
2022-09-24T05:44:44.253Z,108.29
2022-09-24T05:45:43.500Z,108.36
2022-09-24T05:46:43.751Z,108.08
2022-09-24T05:47:43.480Z,107.32
2022-09-24T05:48:43.473Z,107.66
2022-09-24T05:49:43.462Z,107.45
2022-09-24T05:50:43.445Z,107.66
2022-09-24T05:51:43.436Z,107.45
2022-09-24T05:52:43.660Z,106.70
2022-09-24T05:53:43.428Z,106.56
2022-09-24T05:54:43.406Z,107.11
2022-09-24T05:55:43.378Z,106.49
2022-09-24T05:56:43.378Z,107.32
2022-09-24T05:57:43.365Z,106.83
2022-09-24T05:58:43.521Z,106.83
2022-09-24T05:59:43.349Z,106.76
2022-09-24T06:00:43.332Z,106.15
2022-09-24T06:01:43.381Z,105.95
2022-09-24T06:02:43.414Z,106.76
2022-09-24T06:03:43.300Z,106.49
2022-09-24T06:04:43.452Z,105.95
2022-09-24T06:05:43.291Z,106.70
2022-09-24T06:06:43.269Z,106.43
2022-09-24T06:07:43.257Z,106.09
2022-09-24T06:08:43.252Z,107.18
2022-09-24T06:09:43.242Z,106.36
2022-09-24T06:11:04.478Z,107.11
2022-09-24T06:11:43.217Z,107.32
2022-09-24T06:12:43.206Z,107.25
2022-09-24T06:13:43.189Z,106.76
2022-09-24T06:14:43.185Z,107.38
2022-09-24T06:15:43.246Z,107.59
2022-09-24T06:16:43.402Z,108.22
2022-09-24T06:17:43.151Z,108.64
2022-09-24T06:18:43.138Z,108.93
2022-09-24T06:19:43.132Z,109.71
2022-09-24T06:20:43.123Z,109.71
2022-09-24T06:21:43.098Z,111.55
2022-09-24T06:22:43.267Z,112.30
2022-09-24T06:23:43.091Z,112.45
2022-09-24T06:24:43.073Z,112.75
2022-09-24T06:25:43.075Z,113.52
2022-09-24T06:26:43.051Z,114.22
2022-09-24T06:27:43.042Z,114.06
2022-09-24T06:28:43.262Z,114.06
2022-09-24T06:29:43.029Z,115.48
2022-09-24T06:30:43.007Z,116.94
2022-09-24T06:31:43.035Z,117.11
2022-09-24T06:32:42.985Z,117.19
2022-09-24T06:33:42.980Z,117.68
2022-09-24T06:34:43.152Z,118.94
2022-09-24T06:35:42.979Z,118.43
2022-09-24T06:36:42.936Z,118.10
2022-09-24T06:37:42.937Z,118.43
2022-09-24T06:38:42.916Z,119.03
2022-09-24T06:39:42.912Z,119.79
2022-09-24T06:40:43.123Z,120.05
2022-09-24T06:41:42.897Z,119.62
2022-09-24T06:42:42.870Z,120.75
2022-09-24T06:43:42.903Z,120.66
2022-09-24T06:44:42.866Z,119.88
2022-09-24T06:45:42.858Z,121.54
2022-09-24T06:46:43.018Z,121.10
2022-09-24T06:47:42.826Z,122.34
2022-09-24T06:48:42.824Z,122.61
2022-09-24T06:49:42.818Z,122.52
2022-09-24T06:50:42.788Z,122.79
2022-09-24T06:51:42.780Z,121.98
2022-09-24T06:52:42.933Z,123.15
2022-09-24T06:53:42.757Z,121.19
2022-09-24T06:54:42.748Z,122.07
2022-09-24T06:55:42.740Z,122.52
2022-09-24T06:56:42.729Z,122.88
2022-09-24T06:57:42.718Z,122.43
2022-09-24T06:58:42.891Z,123.25
2022-09-24T06:59:42.713Z,124.25
2022-09-24T07:00:42.738Z,123.52
2022-09-24T07:01:42.803Z,124.25
2022-09-24T07:02:42.666Z,124.16
2022-09-24T07:03:42.668Z,125.00
2022-09-24T07:04:42.872Z,125.75
2022-09-24T07:05:43.763Z,126.52
2022-09-24T07:06:42.612Z,127.00
2022-09-24T07:07:42.608Z,128.76
2022-09-24T07:08:42.594Z,127.00
2022-09-24T07:09:42.583Z,126.71
2022-09-24T07:10:42.608Z,126.61
2022-09-24T07:11:42.563Z,125.94
2022-09-24T07:12:42.559Z,127.00
2022-09-24T07:13:42.542Z,126.32
2022-09-24T07:14:42.527Z,126.42
2022-09-24T07:15:42.590Z,125.75
2022-09-24T07:16:42.665Z,126.42
2022-09-24T07:17:42.502Z,127.29
2022-09-24T07:18:49.991Z,126.32
2022-09-24T07:19:42.477Z,126.52
2022-09-24T07:20:42.469Z,124.81
2022-09-24T07:21:42.450Z,123.98
2022-09-24T07:22:42.623Z,123.06
2022-09-24T07:23:42.430Z,121.89
2022-09-24T07:24:42.421Z,121.81
2022-09-24T07:25:42.404Z,121.19
2022-09-24T07:26:42.399Z,120.49
2022-09-24T07:27:42.405Z,120.23
2022-09-24T07:28:42.615Z,119.79
2022-09-24T07:29:42.377Z,119.20
2022-09-24T07:30:42.353Z,118.94
2022-09-24T07:31:42.408Z,119.45
2022-09-24T07:32:42.325Z,119.11
2022-09-24T07:33:42.324Z,118.10
2022-09-24T07:34:42.539Z,117.35
2022-09-24T07:35:42.310Z,117.85
2022-09-24T07:36:42.289Z,117.77
2022-09-24T07:37:42.292Z,116.78
2022-09-24T07:38:42.260Z,116.86
2022-09-24T07:39:42.250Z,116.94
2022-09-24T07:40:42.591Z,115.72
2022-09-24T07:41:42.579Z,116.61
2022-09-24T07:42:42.226Z,116.45
2022-09-24T07:43:42.211Z,115.64
2022-09-24T07:44:42.209Z,115.80
2022-09-24T07:45:42.210Z,115.40
2022-09-24T07:46:42.603Z,115.56
2022-09-24T07:47:42.194Z,115.32
2022-09-24T07:48:42.162Z,116.29
2022-09-24T07:49:42.150Z,115.40
2022-09-24T07:50:42.134Z,115.64
2022-09-24T07:51:42.125Z,115.72
2022-09-24T07:52:42.157Z,115.64
2022-09-24T07:53:42.103Z,115.32
2022-09-24T07:54:42.083Z,115.32
2022-09-24T07:55:42.074Z,115.48
2022-09-24T07:56:42.068Z,115.01
2022-09-24T07:57:42.059Z,114.93
2022-09-24T07:58:42.196Z,115.32
2022-09-24T07:59:42.034Z,114.77
2022-09-24T08:00:42.021Z,113.60
2022-09-24T08:01:42.065Z,112.98
2022-09-24T08:02:42.005Z,112.60
2022-09-24T08:03:42.073Z,112.83
2022-09-24T08:04:42.170Z,111.92
2022-09-24T08:05:41.978Z,112.45
2022-09-24T08:06:47.274Z,111.92
2022-09-24T08:07:42.950Z,112.30
2022-09-24T08:08:41.931Z,112.37
2022-09-24T08:09:41.920Z,113.21
2022-09-24T08:10:42.241Z,113.60
2022-09-24T08:11:41.916Z,112.75
2022-09-24T08:12:41.890Z,112.37
2022-09-24T08:13:41.874Z,112.15
2022-09-24T08:14:41.882Z,112.37
2022-09-24T08:15:41.909Z,113.21
2022-09-24T08:16:42.071Z,112.83
2022-09-24T08:17:41.843Z,113.06
2022-09-24T08:18:41.820Z,114.38
2022-09-24T08:19:41.811Z,115.80
2022-09-24T08:20:41.808Z,115.32
2022-09-24T08:21:41.800Z,114.69
2022-09-24T08:22:42.003Z,113.68
2022-09-24T08:23:41.783Z,113.21
2022-09-24T08:24:41.768Z,114.30
2022-09-24T08:25:41.758Z,116.21
2022-09-24T08:26:41.744Z,118.02
2022-09-24T08:27:41.740Z,118.77
2022-09-24T08:28:41.883Z,118.27
2022-09-24T08:29:41.716Z,121.36
2022-09-24T08:30:41.699Z,122.16
2022-09-24T08:31:41.749Z,123.34
2022-09-24T08:32:41.681Z,124.35
2022-09-24T08:33:41.674Z,125.28
2022-09-24T08:34:41.833Z,126.52
2022-09-24T08:35:41.644Z,131.81
2022-09-24T08:36:43.131Z,135.78
2022-09-24T08:37:41.620Z,138.03
2022-09-24T08:38:41.607Z,138.95
2022-09-24T08:39:41.639Z,140.35
2022-09-24T08:40:41.830Z,141.06
2022-09-24T08:41:41.589Z,143.49
2022-09-24T08:42:41.570Z,145.11
2022-09-24T08:43:41.551Z,145.74
2022-09-24T08:44:41.559Z,146.12
2022-09-24T08:45:41.529Z,142.99
2022-09-24T08:46:41.768Z,138.60
2022-09-24T08:47:41.521Z,134.90
2022-09-24T08:48:41.525Z,130.57
2022-09-24T08:49:41.492Z,127.87
2022-09-24T08:50:41.477Z,130.07
2022-09-24T08:51:41.464Z,131.19
2022-09-24T08:52:41.838Z,131.92
2022-09-24T08:53:41.461Z,132.44
2022-09-24T08:54:41.430Z,134.90
2022-09-24T08:55:41.426Z,138.26
2022-09-24T08:56:41.433Z,140.59
2022-09-24T08:57:41.396Z,143.49
2022-09-24T08:58:44.468Z,147.16
2022-09-24T08:59:41.387Z,148.73
2022-09-24T09:00:41.361Z,148.33
2022-09-24T09:01:41.403Z,150.61
2022-09-24T09:02:41.472Z,149.66
2022-09-24T09:03:41.343Z,149.66
2022-09-24T09:04:41.344Z,149.40
2022-09-24T09:05:44.740Z,149.66
2022-09-24T09:06:42.304Z,150.07
2022-09-24T09:07:41.289Z,149.66
2022-09-24T09:09:05.559Z,147.03
2022-09-24T09:09:42.462Z,142.14
2022-09-24T09:10:41.250Z,141.54
2022-09-24T09:11:41.252Z,143.98
2022-09-24T09:12:41.319Z,147.81
2022-09-24T09:13:41.225Z,150.74
2022-09-24T09:14:42.462Z,151.02
2022-09-24T09:15:41.394Z,150.47
2022-09-24T09:16:41.199Z,154.37
2022-09-24T09:17:41.182Z,154.37
2022-09-24T09:18:41.170Z,157.88
2022-09-24T09:19:41.328Z,161.70
2022-09-24T09:20:41.152Z,160.46
2022-09-24T09:21:41.140Z,164.25
2022-09-24T09:22:41.125Z,168.22
2022-09-24T09:23:41.130Z,173.65
2022-09-24T09:24:41.110Z,174.37
2022-09-24T09:25:41.510Z,176.21
2022-09-24T09:26:41.094Z,179.05
2022-09-24T09:27:41.071Z,175.10
2022-09-24T09:28:41.070Z,178.67
2022-09-24T09:29:41.057Z,180.40
2022-09-24T09:30:41.038Z,185.20
2022-09-24T09:31:41.226Z,190.80
2022-09-24T09:32:41.011Z,194.65
2022-09-24T09:33:41.017Z,195.81
2022-09-24T09:34:41.000Z,201.84
2022-09-24T09:35:40.995Z,212.83
2022-09-24T09:36:40.970Z,221.30
2022-09-24T09:37:41.117Z,229.83
2022-09-24T09:38:40.949Z,231.94
2022-09-24T09:39:40.937Z,231.61
2022-09-24T09:40:40.979Z,225.56
2022-09-24T09:41:40.921Z,220.71
2022-09-24T09:42:40.913Z,210.78
2022-09-24T09:43:40.938Z,215.21
2022-09-24T09:44:40.883Z,210.65
2022-09-24T09:45:40.875Z,211.46
2022-09-24T09:46:40.932Z,216.20
2022-09-24T09:47:40.934Z,221.15
2022-09-24T09:48:40.844Z,219.09
2022-09-24T09:49:41.211Z,214.36
2022-09-24T09:50:40.814Z,212.28
2022-09-24T09:51:40.881Z,220.86
2022-09-24T09:52:40.834Z,225.41
2022-09-24T09:53:40.792Z,230.64
2022-09-24T09:54:40.791Z,235.10
2022-09-24T09:55:41.481Z,241.86
2022-09-24T09:56:40.752Z,247.14
2022-09-24T09:57:40.740Z,243.11
2022-09-24T09:58:40.733Z,247.51
2022-09-24T09:59:40.720Z,246.40
2022-09-24T10:00:40.713Z,240.44
2022-09-24T10:01:40.931Z,241.15
2022-09-24T10:02:40.783Z,245.11
2022-09-24T10:03:40.724Z,244.56
2022-09-24T10:04:40.668Z,242.75
2022-09-24T10:05:40.650Z,242.21
2022-09-24T10:06:40.643Z,228.07
2022-09-24T10:07:40.872Z,225.25
2022-09-24T10:08:40.619Z,232.60
2022-09-24T10:09:40.621Z,221.60
2022-09-24T10:10:40.601Z,210.65
2022-09-24T10:11:40.598Z,207.45
2022-09-24T10:12:40.564Z,206.41
2022-09-24T10:13:40.777Z,218.94
2022-09-24T10:14:40.556Z,226.97
2022-09-24T10:15:45.218Z,233.93
2022-09-24T10:16:41.562Z,234.43
2022-09-24T10:17:40.523Z,245.66
2022-09-24T10:18:40.521Z,250.35
2022-09-24T10:19:40.661Z,237.65
2022-09-24T10:20:40.491Z,236.45
2022-09-24T10:21:40.470Z,239.39
2022-09-24T10:22:40.467Z,247.70
2022-09-24T10:23:40.452Z,256.41
2022-09-24T10:24:40.452Z,264.26
2022-09-24T10:25:40.648Z,255.41
2022-09-24T10:26:44.700Z,243.83
2022-09-24T10:27:41.406Z,229.35
2022-09-24T10:28:40.403Z,213.66
2022-09-24T10:29:40.381Z,209.84
2022-09-24T10:30:40.391Z,227.91
2022-09-24T10:31:40.582Z,245.66
2022-09-24T10:32:40.356Z,264.05
2022-09-24T10:33:40.341Z,281.01
2022-09-24T10:34:40.341Z,298.11
2022-09-24T10:35:40.316Z,309.06
2022-09-24T10:36:40.323Z,321.48
2022-09-24T10:37:40.464Z,332.89
2022-09-24T10:38:40.292Z,336.30
2022-09-24T10:39:40.281Z,322.74
2022-09-24T10:40:40.369Z,335.62
2022-09-24T10:41:40.259Z,339.08
2022-09-24T10:42:40.251Z,342.27
2022-09-24T10:43:40.561Z,341.20
2022-09-24T10:44:40.227Z,307.04
2022-09-24T10:45:40.233Z,279.09
2022-09-24T10:46:40.259Z,258.02
2022-09-24T10:47:40.185Z,241.15
2022-09-24T10:48:40.183Z,241.50
2022-09-24T10:49:40.383Z,268.14
2022-09-24T10:50:40.165Z,293.84
2022-09-24T10:51:40.142Z,315.90
2022-09-24T10:52:40.136Z,331.55
2022-09-24T10:53:40.209Z,345.51
2022-09-24T10:54:40.118Z,356.78
2022-09-24T10:55:40.315Z,364.31
2022-09-24T10:56:45.943Z,362.30
2022-09-24T10:57:41.080Z,361.50
2022-09-24T10:58:40.072Z,356.39
2022-09-24T10:59:40.056Z,342.27
2022-09-24T11:00:40.056Z,319.60
2022-09-24T11:01:40.266Z,316.82
2022-09-24T11:02:40.089Z,336.65
2022-09-24T11:03:40.015Z,355.24
2022-09-24T11:04:40.026Z,365.93
2022-09-24T11:05:39.991Z,363.50
2022-09-24T11:06:39.985Z,367.16
2022-09-24T11:07:40.222Z,361.90
2022-09-24T11:08:39.964Z,336.99
2022-09-24T11:09:39.946Z,335.27
2022-09-24T11:10:42.338Z,342.98
2022-09-24T11:11:39.921Z,337.69
2022-09-24T11:12:39.919Z,305.32
2022-09-24T11:13:40.083Z,304.76
2022-09-24T11:14:39.902Z,327.90
2022-09-24T11:15:39.907Z,348.82
2022-09-24T11:16:39.873Z,363.10
2022-09-24T11:17:39.863Z,374.28
2022-09-24T11:18:39.853Z,389.28
2022-09-24T11:19:40.014Z,389.28
2022-09-24T11:20:39.831Z,395.28
2022-09-24T11:21:39.842Z,399.06
2022-09-24T11:22:39.808Z,403.16
2022-09-24T11:23:39.828Z,392.95
2022-09-24T11:24:39.794Z,396.22
2022-09-24T11:25:39.940Z,393.18
2022-09-24T11:26:39.792Z,376.00
2022-09-24T11:27:39.759Z,380.61
2022-09-24T11:28:39.757Z,381.92
2022-09-24T11:29:39.731Z,389.96
2022-09-24T11:30:39.730Z,398.82
2022-09-24T11:31:39.915Z,408.10
2022-09-24T11:32:39.704Z,414.44
2022-09-24T11:33:39.683Z,419.13
2022-09-24T11:34:39.685Z,423.65
2022-09-24T11:35:39.663Z,426.09
2022-09-24T11:36:39.660Z,427.73
2022-09-24T11:37:39.867Z,424.19
2022-09-24T11:38:39.646Z,428.01
2022-09-24T11:39:39.614Z,432.73
2022-09-24T11:40:39.691Z,431.33
2022-09-24T11:41:39.601Z,437.55
2022-09-24T11:42:39.589Z,447.24
2022-09-24T11:43:39.732Z,443.67
2022-09-24T11:44:39.574Z,446.04
2022-09-24T11:45:39.567Z,448.14
2022-09-24T11:46:39.578Z,451.78
2022-09-24T11:47:39.551Z,449.95
2022-09-24T11:48:39.522Z,452.09
2022-09-24T11:49:39.847Z,456.11
2022-09-24T11:50:42.542Z,441.32
2022-09-24T11:51:40.490Z,447.54
2022-09-24T11:52:39.493Z,455.80
2022-09-24T11:53:39.488Z,456.11
2022-09-24T11:54:39.463Z,457.99
2022-09-24T11:55:40.157Z,441.61
2022-09-24T11:56:39.445Z,424.73
2022-09-24T11:57:39.423Z,415.21
2022-09-24T11:58:39.419Z,392.72
2022-09-24T11:59:39.404Z,369.23
2022-09-24T12:00:39.394Z,388.14
2022-09-24T12:01:39.565Z,407.10
2022-09-24T12:02:39.412Z,414.70
2022-09-24T12:03:39.375Z,425.28
2022-09-24T12:04:39.355Z,430.49
2022-09-24T12:05:39.346Z,438.71
2022-09-24T12:06:39.336Z,443.67
2022-09-24T12:07:39.494Z,447.24
2022-09-24T12:08:39.314Z,442.20
2022-09-24T12:09:39.294Z,445.74
2022-09-24T12:10:39.298Z,422.58
2022-09-24T12:11:39.308Z,427.73
2022-09-24T12:12:39.275Z,433.85
2022-09-24T12:13:39.593Z,432.73
2022-09-24T12:14:39.245Z,440.15
2022-09-24T12:15:39.306Z,443.96
2022-09-24T12:16:39.257Z,445.15
2022-09-24T12:17:39.215Z,425.55
2022-09-24T12:18:39.249Z,434.42
2022-09-24T12:19:39.377Z,440.73
2022-09-24T12:20:39.190Z,438.99
2022-09-24T12:21:39.176Z,413.67
2022-09-24T12:22:39.198Z,406.85
2022-09-24T12:23:39.150Z,387.02
2022-09-24T12:24:39.146Z,357.95
2022-09-24T12:25:39.296Z,346.61
2022-09-24T12:26:39.121Z,322.11
2022-09-24T12:27:39.104Z,305.89
2022-09-24T12:28:39.113Z,328.23